This is the latest recevied weather packets stored in our database for station/object HB9HFD-13. If no packets are shown the sender has not sent any weather packets the latest 1 day(s).
| Time | Temp. | Humidity | Pressure | Rain* | Wind** | Luminosity | Snow |
|---|---|---|---|---|---|---|---|
| 1778005508 | 12.22° C | 88% | 1007.1 hPa | 1.02 mm | 0 m/s | - | - |
| 1778005208 | 12.22° C | 87% | 1007.1 hPa | 1.02 mm | 0 m/s | - | - |
| 1778004908 | 12.22° C | 87% | 1007.1 hPa | 1.02 mm | 0 m/s | - | - |
| 1778004608 | 12.78° C | 87% | 1006.9 hPa | 1.02 mm | 0 m/s | - | - |
| 1778004308 | 12.78° C | 85% | 1006.7 hPa | 1.02 mm | 0 m/s | - | - |
| 1778004007 | 13.33° C | 84% | 1006.7 hPa | 1.02 mm | 0 m/s | - | - |
| 1778003707 | 13.89° C | 80% | 1007.3 hPa | 0.51 mm | 0 m/s | - | - |
| 1778003407 | 14.44° C | 78% | 1007.6 hPa | 0.25 mm | 0 m/s | - | - |
| 1778003106 | 14.44° C | 75% | 1007.5 hPa | 0 mm | 0 m/s | - | - |
| 1778002806 | 14.44° C | 76% | 1007.3 hPa | 0 mm | 0 m/s | - | - |
| 1778002506 | 15° C | 75% | 1007.4 hPa | 0 mm | 0 m/s | - | - |
| 1778002205 | 15° C | 73% | 1007.3 hPa | 0 mm | 0 m/s | - | - |
| 1778001905 | 15.56° C | 72% | 1007.2 hPa | 0 mm | 0 m/s | - | - |
| 1778001605 | 15.56° C | 70% | 1007.1 hPa | 0 mm | 0 m/s | - | - |
| 1778001305 | 15° C | 67% | 1007.1 hPa | 0 mm | 0 m/s | - | - |
| 1778001004 | 15.56° C | 66% | 1007.1 hPa | 0 mm | 0 m/s | - | - |
| 1778000704 | 15° C | 66% | 1007.1 hPa | 0 mm | 0 m/s | - | - |
| 1778000404 | 15.56° C | 67% | 1006.9 hPa | 0 mm | 0 m/s | - | - |
| 1778000104 | 15° C | 67% | 1006.9 hPa | 0 mm | 0 m/s | - | - |
| 1777999803 | 15° C | 66% | 1006.9 hPa | 0 mm | 0.45 m/s, 313° | - | - |
| 1777999503 | 15° C | 66% | 1007 hPa | 0 mm | 0.45 m/s, 313° | - | - |
| 1777999203 | 15.56° C | 66% | 1007 hPa | 0 mm | 0 m/s | - | - |
| 1777998903 | 15.56° C | 66% | 1007.1 hPa | 0 mm | 0.45 m/s, 304° | - | - |
| 1777998602 | 15.56° C | 66% | 1007.1 hPa | 0 mm | 0.45 m/s, 319° | - | - |
| 1777998302 | 15° C | 67% | 1007.1 hPa | 0 mm | 0.89 m/s, 307° | - | - |
* Rain latest hour (hover to see other rain measurements)
** Current wind speed in m/s (hover to see current wind gust speed)